Aérodrome :
LOGIN :

S'inscrire | Disclaimer

   EN    FR    IT 

 










Légende :    VFR   VFR Marginal   IFR   IFR Intensif   IFR Très Intensif
Visi : 
Plafond : 
>= 8 km
>= 3000ft
5 à 8 km
1000 à 3000 ft
1500m à 5 km
500 à 1000 ft
800 à 1500m
200 à 500 ft
< 800m
< 200 ft
Symboles :   Orages  Brouillard  Fortes neiges  Fortes précipitations  Vent > 20 kt
SIGMETs :   Divers  Orages  Givrage  Turbulence  Onde Orograph.  Cendres Volcan.







- Altitude de l'aérodrome : 978 ft
- Code IATA : LNZ


LOWL - Linz

DERNIER METAR :
  • 221820Z AUTO 31008KT 9999 FEW060 SCT080 BKN100 12/08 Q1023 TEMPO SHRA

METARs EXPIRÉS :
  • 221750Z AUTO 30008KT 9999 SCT100 11/08 Q1023 NOSIG
  • 221720Z AUTO 31010KT 9999 //////CB FEW012 BKN070 11/08 Q1022 NOSIG
  • 221650Z AUTO 32013KT 9999 //////CB FEW011 SCT048 BKN070 11/07 Q1022 TEMPO SHRA
  • 221620Z AUTO 31010KT 280V350 9999 VCTS //////CB FEW008 BKN090 13/08 Q1022 TEMPO SHRA
  • 221550Z 30016KT 9999 TSRA SCT040 FEW040CB BKN070 15/06 Q1022 TEMPO NSW

TAF TAF LOWL
Valide du 22 à 18h jusqu'au 23 à 18h UTC


221715Z 2218/2318 29012KT 9999 SCT040 TX19/2315Z TN10/2303Z
PROB40
TEMPO 2218/2220 29017G30KT SHRA FEW030TCU BKN040
TEMPO 2220/2306 27005KT
TEMPO 2308/2317 33015KT
Pas de NOTAMs connus pour ce terrain.



MET'MAP, la Météo Aéronautique d'un coup d'oeil ! - Copyright ORBIFLY Décembre 2007 - Disclaimer

ORBIFLY MET'MAP TEAM :

Programmation & Développement : Alexandra Zaïnal
Conception & Développement : Baudouin d'Aumeries
Co-Programmation & Développement : Marc-Olivier Méhu
Soutien technique & logistique : Manuel Goepfert

Contact : metmap@orbifly.com




SOURCES & CREDITS :

   NOAA